Time;durP1;ratioP1;P1;durP2;ratioP2;P2;SDS_P1;SDS_P2;PMS_P1;PMS_P2;Temp;Humidity;BMP_temperature;BMP_pressure;BME280_temperature;BME280_humidity;BME280_pressure;Samples;Min_cycle;Max_cycle;Signal;HPM_P1;HPM_P2
2022/03/06 00:00:12;;;;;;;14.02;12.30;;;3.50;99.30;;;;;;4983465;28;20205;-78
2022/03/06 00:02:40;;;;;;;15.18;12.57;;;3.50;99.60;;;;;;4991047;28;20492;-81
2022/03/06 00:05:09;;;;;;;16.42;13.18;;;3.50;99.40;;;;;;4994625;28;20193;-81
2022/03/06 00:07:37;;;;;;;13.25;11.77;;;3.50;99.30;;;;;;4988784;28;20232;-85
2022/03/06 00:10:04;;;;;;;14.93;12.15;;;3.50;99.40;;;;;;4988653;28;20205;-79
2022/03/06 00:12:31;;;;;;;13.50;11.40;;;3.60;99.50;;;;;;4989488;28;20686;-80
2022/03/06 00:14:58;;;;;;;12.75;10.80;;;3.60;99.60;;;;;;4990413;28;20695;-81
2022/03/06 00:17:26;;;;;;;15.57;13.35;;;3.60;99.60;;;;;;4997383;28;20255;-80
2022/03/06 00:19:53;;;;;;;13.85;12.07;;;3.60;99.60;;;;;;4988301;28;20197;-77
2022/03/06 00:22:21;;;;;;;15.70;11.90;;;3.50;99.70;;;;;;4987485;28;20216;-76
2022/03/06 00:24:48;;;;;;;13.32;11.88;;;3.50;99.50;;;;;;4984378;28;20240;-81
2022/03/06 00:27:15;;;;;;;13.75;11.20;;;3.50;99.50;;;;;;4985093;28;20971;-76
2022/03/06 00:29:42;;;;;;;12.25;10.85;;;3.50;99.50;;;;;;4985243;28;20264;-76
2022/03/06 00:32:10;;;;;;;15.90;11.73;;;3.60;99.60;;;;;;4985909;28;20255;-77
2022/03/06 00:34:37;;;;;;;13.35;10.85;;;3.50;99.50;;;;;;4986636;28;20506;-76
2022/03/06 00:37:05;;;;;;;14.25;12.07;;;3.50;99.50;;;;;;5006919;23;20228;-90
2022/03/06 00:39:34;;;;;;;12.48;11.10;;;3.50;99.90;;;;;;4988020;28;20284;-87
2022/03/06 00:42:01;;;;;;;13.00;10.75;;;3.50;99.60;;;;;;4987904;28;20224;-88
2022/03/06 00:44:29;;;;;;;13.60;12.00;;;3.50;99.60;;;;;;4988503;28;20201;-87
2022/03/06 00:46:56;;;;;;;14.75;11.80;;;3.50;99.80;;;;;;4991044;28;20695;-90
2022/03/06 00:49:23;;;;;;;12.60;11.18;;;3.50;99.70;;;;;;4990674;28;20283;-88
2022/03/06 00:51:50;;;;;;;13.10;10.65;;;3.40;99.90;;;;;;4982037;28;20302;-88
2022/03/06 00:54:17;;;;;;;12.20;10.15;;;3.40;99.90;;;;;;4975831;28;20205;-89
2022/03/06 00:56:45;;;;;;;12.10;10.80;;;3.40;99.90;;;;;;4976496;28;20233;-90
2022/03/06 00:59:13;;;;;;;13.00;11.43;;;3.50;99.90;;;;;;4970141;28;20205;-91
2022/03/06 01:01:41;;;;;;;11.45;9.82;;;3.50;99.80;;;;;;4973440;28;22161;-89
2022/03/06 01:04:08;;;;;;;12.82;11.48;;;3.50;99.80;;;;;;4981220;28;20209;-90
2022/03/06 01:06:35;;;;;;;13.82;10.50;;;3.50;99.90;;;;;;4976918;28;20224;-88
2022/03/06 01:09:03;;;;;;;12.60;10.27;;;3.50;99.90;;;;;;4973396;28;20248;-89
2022/03/06 01:11:30;;;;;;;13.38;11.35;;;3.50;99.90;;;;;;4970813;28;20305;-87
2022/03/06 01:13:58;;;;;;;13.30;10.10;;;3.50;99.90;;;;;;4976054;28;20675;-90
2022/03/06 01:16:25;;;;;;;14.57;11.02;;;3.50;99.90;;;;;;4974368;28;20229;-90
2022/03/06 01:18:53;;;;;;;13.77;11.05;;;3.50;99.90;;;;;;4980816;28;20205;-90
2022/03/06 01:21:20;;;;;;;11.55;9.93;;;3.50;99.90;;;;;;4972538;28;20237;-90
2022/03/06 01:23:47;;;;;;;11.55;9.85;;;3.50;99.90;;;;;;4976161;28;20209;-88
2022/03/06 01:26:14;;;;;;;13.88;11.38;;;3.50;99.90;;;;;;4974350;28;20231;-87
2022/03/06 01:28:41;;;;;;;12.07;10.43;;;3.50;99.90;;;;;;4974903;28;20212;-89
2022/03/06 01:31:09;;;;;;;11.80;10.43;;;3.50;99.90;;;;;;4973502;28;20236;-91
2022/03/06 01:33:36;;;;;;;12.05;10.15;;;3.50;99.90;;;;;;4979595;28;20212;-87
2022/03/06 01:36:04;;;;;;;11.75;10.05;;;3.50;99.90;;;;;;4975913;28;20237;-90
2022/03/06 01:38:31;;;;;;;11.00;9.85;;;3.50;99.90;;;;;;4972691;28;20213;-86
2022/03/06 01:40:59;;;;;;;10.80;9.40;;;3.50;99.90;;;;;;4975007;28;20229;-89
2022/03/06 01:43:26;;;;;;;11.02;9.82;;;3.50;99.90;;;;;;4973807;28;20204;-91
2022/03/06 01:45:53;;;;;;;12.18;10.18;;;3.50;99.90;;;;;;4972081;28;20692;-89
2022/03/06 01:48:22;;;;;;;10.93;9.68;;;3.40;99.90;;;;;;4970913;28;20202;-89
2022/03/06 01:50:49;;;;;;;11.27;10.02;;;3.40;99.90;;;;;;4971961;28;20597;-90
2022/03/06 01:53:16;;;;;;;11.95;10.23;;;3.40;99.90;;;;;;4974554;28;20205;-90
2022/03/06 01:55:43;;;;;;;10.50;9.23;;;3.40;99.90;;;;;;4973083;28;20233;-89
2022/03/06 01:58:13;;;;;;;11.38;10.15;;;3.40;99.90;;;;;;4962180;28;20198;-87
2022/03/06 02:00:44;;;;;;;11.68;10.05;;;3.30;99.90;;;;;;4979661;28;20310;-91
2022/03/06 02:03:13;;;;;;;10.43;9.20;;;3.30;99.90;;;;;;4973179;28;20197;-87
2022/03/06 02:05:42;;;;;;;11.77;10.32;;;3.30;99.90;;;;;;4972907;28;20204;-87
2022/03/06 02:08:09;;;;;;;11.02;9.88;;;3.20;99.90;;;;;;4953370;28;20205;-88
2022/03/06 02:10:37;;;;;;;11.85;9.93;;;3.20;99.90;;;;;;4974226;28;20193;-90
2022/03/06 02:13:04;;;;;;;11.88;10.52;;;3.10;99.90;;;;;;4974495;28;20648;-91
2022/03/06 02:15:32;;;;;;;11.65;9.57;;;3.00;99.90;;;;;;4975894;28;20240;-90
2022/03/06 02:18:00;;;;;;;10.35;9.25;;;3.00;99.90;;;;;;4974326;28;20206;-90
2022/03/06 02:20:27;;;;;;;11.38;10.18;;;2.90;99.90;;;;;;4969050;28;20198;-89
2022/03/06 02:22:57;;;;;;;10.32;9.32;;;2.90;99.90;;;;;;4971482;28;20626;-91
2022/03/06 02:25:26;;;;;;;12.30;9.93;;;2.90;99.90;;;;;;4976642;28;20194;-89
2022/03/06 02:27:57;;;;;;;13.10;11.70;;;2.90;99.90;;;;;;4977709;28;20715;-89
2022/03/06 02:30:26;;;;;;;12.73;10.10;;;2.80;99.90;;;;;;4973745;28;20202;-89
2022/03/06 02:32:54;;;;;;;11.45;9.80;;;2.80;99.90;;;;;;4976131;28;20226;-90
2022/03/06 02:35:22;;;;;;;11.95;9.40;;;2.80;99.90;;;;;;4975685;28;20225;-89
2022/03/06 02:37:49;;;;;;;10.95;9.50;;;2.80;99.90;;;;;;4971573;28;20237;-90
2022/03/06 02:40:20;;;;;;;11.65;9.85;;;2.80;99.90;;;;;;4977198;28;20209;-90
2022/03/06 02:42:48;;;;;;;13.65;10.82;;;2.80;99.90;;;;;;4975523;28;20252;-91
2022/03/06 02:45:19;;;;;;;11.38;10.18;;;2.80;99.90;;;;;;4977126;28;20537;-88
2022/03/06 02:47:47;;;;;;;12.90;10.38;;;2.80;99.90;;;;;;4976144;28;20225;-90
2022/03/06 02:50:16;;;;;;;11.55;10.43;;;2.70;99.90;;;;;;4986840;28;20197;-87
2022/03/06 02:52:44;;;;;;;12.27;10.07;;;2.70;99.90;;;;;;4972648;28;20233;-89
2022/03/06 02:55:13;;;;;;;12.02;10.38;;;2.70;99.90;;;;;;4975648;28;20221;-91
2022/03/06 02:57:42;;;;;;;13.13;11.07;;;2.70;99.90;;;;;;4976890;28;20225;-90
2022/03/06 03:00:12;;;;;;;12.48;11.20;;;2.60;99.90;;;;;;4975608;28;20593;-88
2022/03/06 03:02:40;;;;;;;14.73;11.43;;;2.60;99.90;;;;;;4970986;28;20481;-89
2022/03/06 03:05:10;;;;;;;12.27;10.52;;;2.60;99.90;;;;;;4970162;28;20257;-89
2022/03/06 03:07:39;;;;;;;14.77;10.75;;;2.60;99.90;;;;;;4972901;28;20296;-87
2022/03/06 03:10:07;;;;;;;14.75;11.85;;;2.50;99.90;;;;;;4970749;28;20640;-89
2022/03/06 03:12:35;;;;;;;12.23;10.48;;;2.50;99.90;;;;;;4971008;28;20230;-90
2022/03/06 03:15:04;;;;;;;12.23;10.43;;;2.50;99.90;;;;;;4975977;28;20205;-87
2022/03/06 03:17:31;;;;;;;12.27;10.55;;;2.50;99.90;;;;;;4970774;28;20304;-89
2022/03/06 03:19:58;;;;;;;13.25;11.77;;;2.50;99.90;;;;;;4972653;28;20210;-87
2022/03/06 03:22:26;;;;;;;11.18;9.63;;;2.50;99.90;;;;;;4970315;28;20225;-90
2022/03/06 03:24:53;;;;;;;12.07;10.88;;;2.50;99.90;;;;;;4972962;28;20267;-90
2022/03/06 03:27:20;;;;;;;12.65;11.18;;;2.50;99.90;;;;;;4969841;28;20225;-85
2022/03/06 03:29:47;;;;;;;12.75;10.55;;;2.50;99.90;;;;;;4971234;28;20547;-91
2022/03/06 03:32:16;;;;;;;12.07;10.85;;;2.50;99.90;;;;;;4966773;28;20217;-83
2022/03/06 03:34:43;;;;;;;15.90;12.45;;;2.50;99.90;;;;;;4969484;28;20268;-87
2022/03/06 03:37:10;;;;;;;12.43;10.75;;;2.40;99.90;;;;;;4972588;28;20920;-89
2022/03/06 03:39:37;;;;;;;12.55;11.18;;;2.40;99.90;;;;;;4970477;28;20198;-86
2022/03/06 03:42:04;;;;;;;12.20;10.90;;;2.40;99.90;;;;;;4971713;28;20256;-93
2022/03/06 03:44:31;;;;;;;13.40;11.43;;;2.40;99.90;;;;;;4971691;28;20202;-91
2022/03/06 03:46:59;;;;;;;11.35;10.05;;;2.30;99.90;;;;;;4976413;28;20228;-91
2022/03/06 03:49:27;;;;;;;13.48;11.68;;;2.30;99.90;;;;;;4972117;28;20285;-89
2022/03/06 03:51:56;;;;;;;14.80;12.20;;;2.30;99.90;;;;;;4967337;28;20228;-87
2022/03/06 03:54:23;;;;;;;13.32;11.07;;;2.30;99.90;;;;;;4966804;28;20204;-89
2022/03/06 03:56:50;;;;;;;12.25;10.95;;;2.30;99.90;;;;;;4974950;28;20229;-88
2022/03/06 03:59:17;;;;;;;11.60;10.40;;;2.30;99.90;;;;;;4973306;28;20640;-89
2022/03/06 04:01:44;;;;;;;11.77;10.57;;;2.30;99.90;;;;;;4968282;28;20222;-91
2022/03/06 04:04:11;;;;;;;12.75;11.05;;;2.30;99.90;;;;;;4969593;28;20205;-87
2022/03/06 04:06:39;;;;;;;12.95;10.77;;;2.30;99.90;;;;;;4969349;28;20214;-87
2022/03/06 04:09:06;;;;;;;11.85;10.45;;;2.30;99.90;;;;;;4968496;28;20599;-84
2022/03/06 04:11:33;;;;;;;12.75;10.55;;;2.30;99.90;;;;;;4970090;28;20233;-88
2022/03/06 04:14:00;;;;;;;14.15;12.15;;;2.30;99.90;;;;;;4965184;28;20259;-87
2022/03/06 04:16:27;;;;;;;13.05;11.40;;;2.20;99.90;;;;;;4967855;28;20240;-90
2022/03/06 04:18:54;;;;;;;12.63;10.43;;;2.20;99.90;;;;;;4967841;28;20202;-84
2022/03/06 04:21:22;;;;;;;11.60;10.40;;;2.20;99.90;;;;;;4967729;28;20225;-88
2022/03/06 04:23:50;;;;;;;12.80;10.52;;;2.10;99.90;;;;;;4969943;28;20201;-88
2022/03/06 04:26:17;;;;;;;12.63;10.77;;;2.10;99.90;;;;;;4968907;28;20205;-90
2022/03/06 04:28:44;;;;;;;11.75;10.15;;;2.10;99.90;;;;;;4970733;28;20249;-88
2022/03/06 04:31:11;;;;;;;12.30;10.82;;;2.20;99.90;;;;;;4969216;28;20206;-87
2022/03/06 04:33:38;;;;;;;11.43;10.23;;;2.20;99.90;;;;;;4970163;28;20199;-85
2022/03/06 04:36:05;;;;;;;11.52;10.32;;;2.20;99.90;;;;;;4968595;28;20315;-88
2022/03/06 04:38:32;;;;;;;11.40;9.98;;;2.20;99.90;;;;;;4967911;28;20252;-85
2022/03/06 04:41:01;;;;;;;12.07;10.45;;;2.20;99.90;;;;;;4967914;28;20212;-88
2022/03/06 04:43:28;;;;;;;13.13;11.30;;;2.20;99.90;;;;;;4974529;28;20285;-91
2022/03/06 04:45:55;;;;;;;13.02;11.10;;;2.20;99.90;;;;;;4968153;28;20197;-88
2022/03/06 04:48:22;;;;;;;12.82;10.23;;;2.20;99.90;;;;;;4969471;28;20228;-85
2022/03/06 04:50:49;;;;;;;12.60;10.85;;;2.20;99.90;;;;;;4969091;28;20232;-91
2022/03/06 04:53:16;;;;;;;11.25;10.05;;;2.20;99.90;;;;;;4967955;28;20742;-89
2022/03/06 04:55:43;;;;;;;13.60;11.13;;;2.10;99.90;;;;;;4969266;28;20233;-86
2022/03/06 04:58:12;;;;;;;12.73;10.73;;;2.10;99.90;;;;;;4969579;28;20225;-90
2022/03/06 05:00:39;;;;;;;11.57;10.38;;;2.20;99.90;;;;;;4969768;28;20205;-92
2022/03/06 05:03:06;;;;;;;12.65;11.35;;;2.20;99.90;;;;;;4973468;28;20221;-90
2022/03/06 05:05:33;;;;;;;11.70;9.80;;;2.20;99.90;;;;;;4973395;28;20856;-90
2022/03/06 05:08:00;;;;;;;10.55;9.52;;;2.20;99.90;;;;;;4973188;28;20229;-94
2022/03/06 05:10:27;;;;;;;11.73;10.20;;;2.30;99.90;;;;;;4969701;28;20289;-90
2022/03/06 05:12:54;;;;;;;11.18;9.23;;;2.30;99.90;;;;;;4971984;28;20233;-90
2022/03/06 05:15:23;;;;;;;12.20;10.13;;;2.30;99.90;;;;;;4969096;28;20205;-90
2022/03/06 05:17:50;;;;;;;14.13;10.60;;;2.30;99.90;;;;;;4969572;28;20236;-87
2022/03/06 05:20:17;;;;;;;13.02;11.63;;;2.30;99.90;;;;;;4971344;28;20201;-88
2022/03/06 05:22:44;;;;;;;11.30;10.15;;;2.30;99.90;;;;;;4970471;28;20623;-88
2022/03/06 05:25:12;;;;;;;10.63;9.52;;;2.30;99.90;;;;;;4970025;28;20205;-86
2022/03/06 05:27:40;;;;;;;12.68;10.75;;;2.30;99.90;;;;;;4968045;28;20277;-89
2022/03/06 05:30:09;;;;;;;12.38;10.60;;;2.30;99.90;;;;;;4971366;28;20225;-88
2022/03/06 05:32:38;;;;;;;13.05;11.73;;;2.30;99.90;;;;;;4968873;28;20221;-90
2022/03/06 05:35:05;;;;;;;11.40;10.30;;;2.30;99.90;;;;;;4968962;28;20209;-91
2022/03/06 05:37:33;;;;;;;13.02;11.35;;;2.30;99.90;;;;;;4970180;28;20223;-89
2022/03/06 05:40:00;;;;;;;11.55;10.35;;;2.20;99.90;;;;;;4971642;28;20205;-89
2022/03/06 05:42:27;;;;;;;11.55;10.38;;;2.30;99.90;;;;;;4970295;28;20279;-83
2022/03/06 05:44:54;;;;;;;11.32;10.10;;;2.30;99.90;;;;;;4966551;28;20258;-86
2022/03/06 05:47:21;;;;;;;11.75;10.25;;;2.20;99.90;;;;;;4967275;28;20228;-88
2022/03/06 05:49:49;;;;;;;11.77;10.57;;;2.20;99.90;;;;;;4967532;28;20253;-82
2022/03/06 05:52:17;;;;;;;11.60;9.80;;;2.20;99.90;;;;;;4969528;28;20230;-87
2022/03/06 05:54:44;;;;;;;12.25;10.40;;;2.20;99.90;;;;;;4967411;28;20313;-84
2022/03/06 05:57:12;;;;;;;12.38;10.85;;;2.20;99.90;;;;;;4968400;28;20300;-83
2022/03/06 05:59:39;;;;;;;11.65;10.20;;;2.10;99.90;;;;;;4969071;28;20256;-85
2022/03/06 06:02:06;;;;;;;13.63;12.13;;;2.10;99.90;;;;;;4971260;28;20304;-84
2022/03/06 06:04:33;;;;;;;12.15;10.60;;;2.00;99.90;;;;;;4969253;28;20205;-83
2022/03/06 06:07:01;;;;;;;13.60;12.18;;;2.00;99.90;;;;;;4968777;28;20225;-83
2022/03/06 06:09:28;;;;;;;12.32;11.02;;;2.10;99.90;;;;;;4963022;28;20201;-84
2022/03/06 06:11:55;;;;;;;11.95;10.32;;;2.00;99.90;;;;;;4966768;28;20616;-85
2022/03/06 06:14:22;;;;;;;12.48;10.93;;;2.00;99.90;;;;;;4968020;28;20719;-84
2022/03/06 06:16:49;;;;;;;12.50;11.23;;;2.00;99.90;;;;;;4968778;28;20243;-84
2022/03/06 06:19:16;;;;;;;12.20;10.02;;;2.10;99.90;;;;;;4965683;28;20949;-81
2022/03/06 06:21:44;;;;;;;11.30;10.10;;;2.10;99.90;;;;;;4967296;28;20201;-82
2022/03/06 06:24:13;;;;;;;12.80;11.40;;;2.10;99.90;;;;;;4962768;28;20732;-86
2022/03/06 06:26:40;;;;;;;13.00;10.80;;;2.20;99.90;;;;;;4965180;28;20228;-89
2022/03/06 06:29:07;;;;;;;11.75;10.38;;;2.20;99.90;;;;;;4970922;28;20208;-81
2022/03/06 06:31:34;;;;;;;10.90;9.80;;;2.20;99.90;;;;;;4947559;28;20201;-81
2022/03/06 06:34:01;;;;;;;10.82;9.73;;;2.30;99.90;;;;;;4964513;28;20673;-83
2022/03/06 06:36:28;;;;;;;12.13;10.82;;;2.40;99.90;;;;;;4966081;28;20217;-87
2022/03/06 06:38:55;;;;;;;12.40;10.90;;;2.40;99.90;;;;;;4963207;28;20233;-85
2022/03/06 06:41:24;;;;;;;11.20;10.00;;;2.40;99.90;;;;;;4966373;28;20224;-84
2022/03/06 06:43:51;;;;;;;11.25;10.05;;;2.40;99.90;;;;;;4967886;28;20229;-90
2022/03/06 06:46:18;;;;;;;12.88;11.23;;;2.40;99.90;;;;;;4970625;28;20213;-92
2022/03/06 06:48:45;;;;;;;11.55;10.45;;;2.50;99.90;;;;;;4968340;28;20217;-90
2022/03/06 06:51:12;;;;;;;11.23;10.07;;;2.50;99.90;;;;;;4966978;28;20210;-83
2022/03/06 06:53:39;;;;;;;13.20;10.95;;;2.50;99.90;;;;;;4964017;28;20257;-83
2022/03/06 06:56:07;;;;;;;11.90;10.45;;;2.50;99.90;;;;;;4969299;28;20256;-88
2022/03/06 06:58:35;;;;;;;11.25;9.75;;;2.50;99.90;;;;;;4964825;28;20874;-90
2022/03/06 07:01:02;;;;;;;11.38;10.20;;;2.50;99.90;;;;;;4962954;28;20206;-90
2022/03/06 07:03:29;;;;;;;11.13;9.73;;;2.60;99.90;;;;;;4970498;28;20724;-87
2022/03/06 07:05:58;;;;;;;10.98;9.85;;;2.60;99.90;;;;;;4966230;28;20218;-87
2022/03/06 07:08:25;;;;;;;10.75;9.68;;;2.80;99.90;;;;;;4970290;28;20639;-86
2022/03/06 07:10:52;;;;;;;13.27;9.85;;;3.10;99.90;;;;;;4985371;28;20199;-91
2022/03/06 07:13:19;;;;;;;10.77;9.63;;;3.30;99.90;;;;;;4964910;28;20226;-89
2022/03/06 07:15:48;;;;;;;11.23;9.98;;;3.40;99.90;;;;;;4966823;28;20252;-90
2022/03/06 07:18:15;;;;;;;10.93;9.82;;;3.50;99.90;;;;;;4967504;28;20234;-89
2022/03/06 07:20:42;;;;;;;11.68;9.95;;;3.70;99.80;;;;;;4971887;28;20206;-88
2022/03/06 07:23:09;;;;;;;11.15;9.10;;;3.80;99.40;;;;;;4975209;28;20228;-89
2022/03/06 07:25:36;;;;;;;11.48;9.45;;;4.30;98.90;;;;;;4987630;28;20194;-87
2022/03/06 07:28:03;;;;;;;12.60;10.38;;;4.90;98.20;;;;;;4976170;28;20228;-90
2022/03/06 07:30:30;;;;;;;12.88;10.43;;;5.40;97.50;;;;;;4977350;28;20201;-90
2022/03/06 07:33:00;;;;;;;10.80;9.70;;;5.90;96.80;;;;;;4976493;28;20272;-86
2022/03/06 07:35:27;;;;;;;10.45;9.35;;;6.10;95.80;;;;;;4972697;28;20194;-89
2022/03/06 07:37:55;;;;;;;10.95;9.80;;;6.40;94.80;;;;;;4978826;28;20226;-90
2022/03/06 07:40:23;;;;;;;11.05;9.95;;;6.50;94.70;;;;;;4978617;28;20608;-88
2022/03/06 07:42:50;;;;;;;10.75;9.65;;;6.50;94.40;;;;;;4981082;28;20225;-90
2022/03/06 07:45:18;;;;;;;11.63;9.27;;;6.70;93.90;;;;;;4989541;28;20484;-89
2022/03/06 07:47:46;;;;;;;11.05;9.00;;;6.90;94.10;;;;;;4998225;28;20209;-87
2022/03/06 07:50:15;;;;;;;10.13;9.05;;;7.00;94.00;;;;;;4995474;28;20189;-86
2022/03/06 07:52:47;;;;;;;10.38;9.27;;;7.40;94.00;;;;;;4964730;28;20213;-88
2022/03/06 07:57:45;;;;;;;12.70;11.38;;;7.20;93.30;;;;;;4994415;28;20694;-68
2022/03/06 08:00:13;;;;;;;12.85;10.98;;;6.70;93.90;;;;;;5011632;28;20192;-68
2022/03/06 08:02:41;;;;;;;11.65;10.40;;;6.70;94.10;;;;;;5007384;28;20615;-67
2022/03/06 08:05:09;;;;;;;13.07;10.50;;;7.00;93.50;;;;;;4993477;28;20201;-67
2022/03/06 08:07:37;;;;;;;11.85;10.27;;;7.20;93.10;;;;;;4995040;28;20700;-67
2022/03/06 08:10:06;;;;;;;11.18;9.98;;;7.50;93.20;;;;;;4991148;28;20228;-67
2022/03/06 08:12:33;;;;;;;11.48;10.27;;;7.50;92.50;;;;;;4992744;28;20260;-67
2022/03/06 08:15:00;;;;;;;11.98;10.02;;;7.80;92.60;;;;;;4992787;28;20221;-67
2022/03/06 08:17:27;;;;;;;10.85;9.73;;;7.90;91.80;;;;;;4995009;28;20227;-67
2022/03/06 08:19:54;;;;;;;11.90;10.52;;;8.10;92.00;;;;;;4994964;28;20197;-67
2022/03/06 08:22:23;;;;;;;11.43;10.00;;;8.10;91.50;;;;;;4999340;28;20561;-68
2022/03/06 08:24:53;;;;;;;12.85;9.82;;;8.10;91.70;;;;;;4996674;28;20228;-67
2022/03/06 08:27:21;;;;;;;11.68;10.32;;;8.40;92.10;;;;;;4991053;28;20224;-67
2022/03/06 08:29:48;;;;;;;11.45;10.32;;;8.70;92.00;;;;;;4991105;28;20197;-68
2022/03/06 08:32:15;;;;;;;11.57;10.00;;;9.20;91.80;;;;;;4993421;28;20208;-68
2022/03/06 08:34:42;;;;;;;12.13;10.57;;;9.50;91.50;;;;;;4993576;28;20656;-69
2022/03/06 08:37:09;;;;;;;11.65;9.93;;;9.60;90.10;;;;;;4989590;28;20699;-68
2022/03/06 08:39:37;;;;;;;10.95;9.82;;;9.70;90.20;;;;;;4988828;28;20345;-68
2022/03/06 08:42:06;;;;;;;11.02;9.70;;;9.90;89.50;;;;;;4993071;28;20619;-69
2022/03/06 08:44:33;;;;;;;11.23;9.23;;;10.10;89.40;;;;;;4994875;28;20231;-69
2022/03/06 08:47:00;;;;;;;12.82;9.95;;;10.50;88.30;;;;;;4990486;28;20205;-68
2022/03/06 08:49:27;;;;;;;11.80;10.15;;;10.80;87.00;;;;;;5010766;28;20243;-69
2022/03/06 08:51:54;;;;;;;12.27;11.00;;;10.80;86.80;;;;;;5015083;28;20626;-69
2022/03/06 08:54:22;;;;;;;12.45;10.02;;;10.90;87.00;;;;;;4997162;28;20224;-69
2022/03/06 08:56:49;;;;;;;11.48;10.30;;;10.90;85.70;;;;;;4995211;28;20295;-70
2022/03/06 08:59:19;;;;;;;13.10;10.80;;;10.80;85.30;;;;;;4985366;28;20271;-69
2022/03/06 09:01:46;;;;;;;12.55;9.75;;;10.80;84.80;;;;;;4997495;28;20567;-69
2022/03/06 09:04:14;;;;;;;11.30;10.10;;;10.90;85.70;;;;;;4997913;28;20228;-69
2022/03/06 09:06:42;;;;;;;11.15;9.95;;;10.80;84.80;;;;;;4993383;28;20523;-69
2022/03/06 09:09:09;;;;;;;10.85;9.75;;;10.80;84.50;;;;;;4986576;28;20820;-68
2022/03/06 09:11:36;;;;;;;11.55;10.35;;;10.90;84.90;;;;;;4995671;28;20417;-69
2022/03/06 09:14:03;;;;;;;10.13;9.00;;;10.90;84.40;;;;;;4987376;28;20227;-69
2022/03/06 09:16:32;;;;;;;11.98;10.30;;;10.70;83.90;;;;;;4989359;28;20700;-70
2022/03/06 09:18:59;;;;;;;11.00;9.25;;;10.80;84.30;;;;;;4992615;28;20236;-70
2022/03/06 09:21:27;;;;;;;11.18;9.60;;;10.90;82.50;;;;;;4993455;28;20196;-69
2022/03/06 09:23:54;;;;;;;11.93;10.73;;;11.10;82.20;;;;;;4995973;28;20727;-69
2022/03/06 09:26:22;;;;;;;11.77;10.52;;;10.80;81.40;;;;;;4990141;28;20201;-69
2022/03/06 09:28:49;;;;;;;11.73;10.20;;;10.90;81.70;;;;;;4991851;28;20224;-71
2022/03/06 09:31:16;;;;;;;11.57;9.73;;;11.20;82.50;;;;;;5001684;28;20201;-70
2022/03/06 09:33:44;;;;;;;13.05;9.85;;;11.40;81.80;;;;;;5001343;28;20224;-69
2022/03/06 09:36:11;;;;;;;9.63;8.48;;;11.40;80.50;;;;;;5000804;28;20236;-70
2022/03/06 09:38:38;;;;;;;10.07;9.07;;;11.20;79.10;;;;;;4991252;28;20703;-71
2022/03/06 09:41:06;;;;;;;11.43;9.40;;;11.00;79.30;;;;;;4999247;28;20200;-69
2022/03/06 09:43:34;;;;;;;11.98;10.68;;;11.30;80.50;;;;;;4995694;28;20559;-69
2022/03/06 09:46:05;;;;;;;10.52;9.40;;;11.70;80.30;;;;;;4988476;28;20296;-69
2022/03/06 09:48:32;;;;;;;10.73;9.63;;;11.50;78.80;;;;;;4991422;28;20873;-70
2022/03/06 09:51:02;;;;;;;10.60;9.23;;;11.20;79.50;;;;;;4992606;28;20255;-69
2022/03/06 09:53:29;;;;;;;12.15;10.18;;;10.80;79.30;;;;;;4997736;28;20255;-70
2022/03/06 09:55:56;;;;;;;12.43;10.15;;;10.80;80.40;;;;;;4991522;28;20209;-70
2022/03/06 09:58:23;;;;;;;11.05;9.95;;;11.10;79.50;;;;;;4993684;28;20221;-70
2022/03/06 10:00:50;;;;;;;12.30;10.93;;;11.30;79.00;;;;;;4985902;28;20332;-68
2022/03/06 10:03:19;;;;;;;11.38;10.27;;;11.30;78.40;;;;;;4999858;28;20557;-69
2022/03/06 10:05:46;;;;;;;11.23;9.95;;;11.40;79.40;;;;;;4988740;28;20200;-68
2022/03/06 10:08:20;;;;;;;10.07;9.07;;;11.70;77.70;;;;;;4989717;28;20228;-70
2022/03/06 10:10:50;;;;;;;12.48;9.88;;;12.10;77.80;;;;;;4992194;28;20197;-71
2022/03/06 10:13:22;;;;;;;14.48;10.35;;;12.50;76.90;;;;;;5000399;28;20680;-70
2022/03/06 10:16:01;;;;;;;11.65;10.45;;;12.80;75.50;;;;;;5010028;28;20200;-71
2022/03/06 10:18:31;;;;;;;12.18;10.65;;;12.70;74.50;;;;;;5004739;28;20221;-69
2022/03/06 10:21:02;;;;;;;10.80;9.70;;;12.40;75.10;;;;;;4995118;28;20208;-70
2022/03/06 10:23:31;;;;;;;11.48;9.80;;;12.20;76.10;;;;;;4994870;28;20247;-69
2022/03/06 10:26:02;;;;;;;13.20;10.05;;;12.30;76.80;;;;;;4990495;28;20264;-70
2022/03/06 10:28:29;;;;;;;11.82;10.27;;;11.70;74.40;;;;;;4995876;28;20240;-71
2022/03/06 10:31:04;;;;;;;10.20;9.10;;;11.70;75.10;;;;;;4985756;28;20206;-71
2022/03/06 10:33:31;;;;;;;11.48;10.25;;;11.80;76.70;;;;;;4994944;28;20219;-70
2022/03/06 10:36:02;;;;;;;12.32;10.45;;;11.70;76.00;;;;;;4988907;28;20205;-70
2022/03/06 10:38:32;;;;;;;11.55;10.35;;;11.50;75.70;;;;;;4989394;28;20220;-70
2022/03/06 10:41:00;;;;;;;10.85;9.73;;;11.60;77.50;;;;;;5001913;28;20200;-69
2022/03/06 10:43:30;;;;;;;12.73;10.25;;;11.70;76.90;;;;;;5002952;28;20911;-69
2022/03/06 10:46:16;;;;;;;12.95;11.48;;;11.90;77.40;;;;;;5002105;28;20567;-68
2022/03/06 10:48:45;;;;;;;11.35;10.20;;;11.90;75.90;;;;;;5003735;28;20227;-68
2022/03/06 10:51:14;;;;;;;14.65;10.25;;;11.50;74.60;;;;;;5004595;28;20197;-69
2022/03/06 10:53:42;;;;;;;11.55;10.35;;;11.60;76.00;;;;;;5003525;28;20551;-69
2022/03/06 10:56:12;;;;;;;11.75;10.55;;;11.80;76.00;;;;;;5004572;28;20683;-69
2022/03/06 10:58:40;;;;;;;10.77;9.70;;;11.80;75.30;;;;;;5001918;28;20725;-69
2022/03/06 11:01:08;;;;;;;11.20;10.00;;;11.70;73.80;;;;;;5004118;28;20197;-69
2022/03/06 11:03:36;;;;;;;10.82;9.73;;;11.50;74.10;;;;;;5005157;28;20287;-69
2022/03/06 11:06:03;;;;;;;12.25;10.85;;;11.60;73.40;;;;;;5003017;28;20209;-70
2022/03/06 11:08:31;;;;;;;11.73;10.00;;;11.80;72.40;;;;;;5006128;28;20358;-71
2022/03/06 11:11:00;;;;;;;11.45;10.25;;;11.90;72.10;;;;;;5005559;28;20262;-69
2022/03/06 11:13:29;;;;;;;11.02;9.93;;;12.10;72.80;;;;;;5005158;28;20216;-70
2022/03/06 11:15:57;;;;;;;11.52;10.10;;;12.30;71.40;;;;;;5004658;28;20632;-72
2022/03/06 11:18:24;;;;;;;10.95;9.77;;;12.50;70.60;;;;;;5000787;28;20232;-70
2022/03/06 11:20:53;;;;;;;14.40;10.52;;;12.50;71.20;;;;;;4991337;28;20650;-71
2022/03/06 11:23:30;;;;;;;11.70;10.45;;;12.20;70.60;;;;;;4999883;28;20738;-69
2022/03/06 11:26:15;;;;;;;11.02;9.82;;;12.10;70.70;;;;;;5015064;28;20219;-69
2022/03/06 11:29:07;;;;;;;10.52;9.43;;;12.10;70.30;;;;;;5009556;28;20229;-69
2022/03/06 11:31:44;;;;;;;13.32;10.55;;;11.90;69.80;;;;;;5000089;28;20202;-70
2022/03/06 11:34:12;;;;;;;14.48;10.75;;;11.90;70.20;;;;;;4990888;28;20221;-71
2022/03/06 11:36:46;;;;;;;11.93;10.73;;;11.60;71.60;;;;;;4991862;28;20203;-71
2022/03/06 11:39:16;;;;;;;12.00;10.80;;;12.00;73.10;;;;;;5002176;28;20223;-72
2022/03/06 11:41:44;;;;;;;11.73;9.80;;;12.00;71.90;;;;;;5012039;28;20294;-74
2022/03/06 11:44:33;;;;;;;11.95;9.98;;;12.10;71.70;;;;;;4995764;28;20228;-70
2022/03/06 11:47:01;;;;;;;11.38;10.00;;;12.10;72.70;;;;;;4997421;28;20311;-70
2022/03/06 11:49:34;;;;;;;10.55;9.45;;;11.70;72.60;;;;;;4994646;28;20221;-71
2022/03/06 11:52:01;;;;;;;12.07;10.43;;;12.00;73.60;;;;;;4998915;28;20219;-71
2022/03/06 11:54:42;;;;;;;11.95;10.75;;;12.00;72.60;;;;;;4995933;28;20217;-71
2022/03/06 11:57:11;;;;;;;11.77;10.52;;;12.00;72.50;;;;;;5000903;28;20228;-70
2022/03/06 11:59:46;;;;;;;10.88;9.60;;;11.90;70.80;;;;;;5003026;28;20239;-72
2022/03/06 12:02:21;;;;;;;11.57;10.38;;;11.70;70.50;;;;;;4991828;28;20200;-70
2022/03/06 12:04:56;;;;;;;11.55;10.35;;;11.50;70.70;;;;;;5001273;28;20575;-71
2022/03/06 12:07:26;;;;;;;12.45;11.10;;;11.60;71.10;;;;;;5002643;28;20765;-69
2022/03/06 12:09:54;;;;;;;12.20;10.90;;;11.30;72.20;;;;;;5002107;28;20216;-70
2022/03/06 12:12:25;;;;;;;10.80;9.73;;;11.40;71.30;;;;;;5003164;28;20205;-69
2022/03/06 12:14:55;;;;;;;12.57;11.27;;;11.20;71.70;;;;;;5013086;28;20216;-70
2022/03/06 12:17:31;;;;;;;12.15;10.85;;;11.20;71.90;;;;;;5015422;28;20211;-71
2022/03/06 12:20:25;;;;;;;10.55;9.55;;;11.40;72.10;;;;;;5017598;28;20231;-71
2022/03/06 12:23:04;;;;;;;13.32;11.60;;;11.50;71.40;;;;;;5011914;28;20215;-71
2022/03/06 12:25:33;;;;;;;14.15;11.48;;;11.50;72.40;;;;;;5011918;28;20328;-72
2022/03/06 12:28:20;;;;;;;20.95;12.27;;;11.40;72.70;;;;;;5012259;28;20311;-70
2022/03/06 12:30:48;;;;;;;13.45;11.93;;;11.30;73.50;;;;;;4996699;28;20246;-69
2022/03/06 12:33:35;;;;;;;13.27;11.52;;;11.30;73.40;;;;;;4996264;28;20272;-70
2022/03/06 12:36:16;;;;;;;11.75;10.55;;;11.30;74.60;;;;;;4996230;28;20644;-70
2022/03/06 12:38:45;;;;;;;13.30;10.57;;;11.20;72.70;;;;;;5036197;23;20228;-79
2022/03/06 12:41:12;;;;;;;12.55;11.23;;;11.40;72.30;;;;;;4977249;28;20232;-77
2022/03/06 12:43:47;;;;;;;12.80;11.38;;;11.40;73.40;;;;;;4989644;28;20538;-76